createdAt,value
2023-01-21T00:02:08.691Z,1.49
2023-01-21T00:04:38.286Z,1.46
2023-01-21T00:07:05.405Z,1.49
2023-01-21T00:09:32.194Z,1.48
2023-01-21T00:11:59.235Z,1.36
2023-01-21T00:14:34.689Z,1.34
2023-01-21T00:17:04.511Z,1.31
2023-01-21T00:19:33.637Z,1.48
2023-01-21T00:22:00.307Z,1.55
2023-01-21T00:24:27.181Z,1.40
2023-01-21T00:26:53.935Z,1.32
2023-01-21T00:29:21.531Z,1.49
2023-01-21T00:31:49.064Z,1.35
2023-01-21T00:34:15.975Z,1.31
2023-01-21T00:36:42.768Z,1.46
2023-01-21T00:39:09.571Z,1.66
2023-01-21T00:41:37.572Z,1.76
2023-01-21T00:44:04.808Z,1.79
2023-01-21T00:46:32.264Z,1.90
2023-01-21T00:49:00.423Z,1.88
2023-01-21T00:51:27.851Z,1.95
2023-01-21T00:53:57.613Z,1.99
2023-01-21T00:56:24.646Z,2.02
2023-01-21T00:58:51.484Z,2.07
2023-01-21T01:01:19.932Z,2.08
2023-01-21T01:03:47.569Z,2.07
2023-01-21T01:06:19.288Z,2.05
2023-01-21T01:08:46.711Z,2.10
2023-01-21T01:11:14.219Z,2.27
2023-01-21T01:13:41.021Z,2.37
2023-01-21T01:16:07.816Z,2.28
2023-01-21T01:18:35.352Z,2.29
2023-01-21T01:21:02.583Z,2.31
2023-01-21T01:23:29.684Z,2.32
2023-01-21T01:25:56.996Z,2.30
2023-01-21T01:28:23.928Z,2.23
2023-01-21T01:30:51.533Z,2.21
2023-01-21T01:33:19.295Z,2.30
2023-01-21T01:35:49.430Z,2.30
2023-01-21T01:38:17.109Z,2.22
2023-01-21T01:40:43.968Z,2.19
2023-01-21T01:43:18.092Z,2.16
2023-01-21T01:45:44.685Z,2.22
2023-01-21T01:48:15.629Z,2.32
2023-01-21T01:50:42.780Z,2.22
2023-01-21T01:53:11.153Z,2.14
2023-01-21T01:55:38.873Z,2.15
2023-01-21T01:58:06.942Z,2.13
2023-01-21T02:00:34.455Z,2.14
2023-01-21T02:03:19.848Z,2.20
2023-01-21T02:05:46.873Z,2.32
2023-01-21T02:08:13.968Z,2.35
2023-01-21T02:10:40.677Z,2.41
2023-01-21T02:13:07.229Z,2.42
2023-01-21T02:15:57.161Z,2.39
2023-01-21T02:18:46.482Z,2.42
2023-01-21T02:21:13.071Z,2.45
2023-01-21T02:23:42.645Z,2.54
2023-01-21T02:26:28.029Z,2.69
2023-01-21T02:29:06.881Z,2.71
2023-01-21T02:31:48.664Z,2.81
2023-01-21T02:34:15.242Z,2.93
2023-01-21T02:36:53.989Z,2.92
2023-01-21T02:39:29.359Z,2.77
2023-01-21T02:42:04.973Z,2.52
2023-01-21T02:44:39.574Z,2.41
2023-01-21T02:47:08.829Z,2.35
2023-01-21T02:49:38.498Z,2.42
2023-01-21T02:52:05.028Z,2.37
2023-01-21T02:54:40.801Z,2.27
2023-01-21T02:57:13.373Z,2.23
2023-01-21T02:59:42.416Z,2.16
2023-01-21T03:02:18.318Z,2.08
2023-01-21T03:04:50.877Z,2.01
2023-01-21T03:07:56.226Z,2.02
2023-01-21T03:10:31.385Z,1.92
2023-01-21T03:13:07.250Z,1.90
2023-01-21T03:15:57.606Z,1.93
2023-01-21T03:18:26.531Z,1.95
2023-01-21T03:21:01.775Z,1.90
2023-01-21T03:23:39.286Z,1.90
2023-01-21T03:26:07.490Z,1.95
2023-01-21T03:28:36.138Z,2.02
2023-01-21T03:31:11.697Z,1.99
2023-01-21T03:33:40.546Z,2.03
2023-01-21T03:36:11.811Z,2.10
2023-01-21T03:38:42.624Z,2.15
2023-01-21T03:41:13.941Z,2.23
2023-01-21T03:43:40.543Z,2.31
2023-01-21T03:46:14.042Z,2.32
2023-01-21T03:48:59.368Z,2.34
2023-01-21T03:51:29.265Z,2.27
2023-01-21T03:53:56.495Z,2.27
2023-01-21T03:56:24.141Z,2.17
2023-01-21T03:58:50.556Z,2.02
2023-01-21T04:01:17.030Z,1.95
2023-01-21T04:03:43.644Z,1.97
2023-01-21T04:06:13.988Z,2.00
2023-01-21T04:08:40.666Z,2.08
2023-01-21T04:11:07.109Z,2.08
2023-01-21T04:13:33.621Z,2.12
2023-01-21T04:16:00.107Z,2.07
2023-01-21T04:18:26.625Z,2.01
2023-01-21T04:20:53.241Z,1.99
2023-01-21T04:23:19.759Z,1.93
2023-01-21T04:25:49.920Z,1.82
2023-01-21T04:28:16.540Z,1.70
2023-01-21T04:30:43.049Z,1.66
2023-01-21T04:33:09.733Z,1.65
2023-01-21T04:35:36.434Z,1.64
2023-01-21T04:38:03.078Z,1.72
2023-01-21T04:40:29.691Z,1.76
2023-01-21T04:42:56.244Z,1.77
2023-01-21T04:45:22.878Z,1.86
2023-01-21T04:47:49.462Z,1.90
2023-01-21T04:50:16.519Z,1.91
2023-01-21T04:52:43.127Z,1.83
2023-01-21T04:55:10.207Z,1.76
2023-01-21T04:57:37.170Z,1.76
2023-01-21T05:00:05.474Z,1.75
2023-01-21T05:02:32.539Z,1.70
2023-01-21T05:04:59.439Z,1.66
2023-01-21T05:07:26.995Z,1.60
2023-01-21T05:09:53.429Z,1.54
2023-01-21T05:12:19.923Z,1.47
2023-01-21T05:14:46.508Z,1.31
2023-01-21T05:17:13.008Z,1.27
2023-01-21T05:19:39.557Z,1.26
2023-01-21T05:22:06.071Z,1.30
2023-01-21T05:24:32.622Z,1.21
2023-01-21T05:26:59.194Z,1.05
2023-01-21T05:29:25.767Z,0.94
2023-01-21T05:31:52.366Z,0.94
2023-01-21T05:34:18.893Z,0.91
2023-01-21T05:36:45.395Z,0.84
2023-01-21T05:39:11.850Z,0.81
2023-01-21T05:41:38.291Z,0.76
2023-01-21T05:44:04.857Z,0.73
2023-01-21T05:46:31.377Z,0.74
2023-01-21T05:48:57.852Z,0.73
2023-01-21T05:51:24.452Z,0.74
2023-01-21T05:53:50.957Z,0.80
2023-01-21T05:56:17.451Z,0.76
2023-01-21T05:58:43.984Z,0.75
2023-01-21T06:01:10.545Z,0.69
2023-01-21T06:03:38.166Z,0.68
2023-01-21T06:06:04.962Z,0.71
2023-01-21T06:08:31.406Z,0.81
2023-01-21T06:10:57.891Z,0.83
2023-01-21T06:13:24.472Z,0.82
2023-01-21T06:15:53.996Z,0.80
2023-01-21T06:18:20.528Z,0.75
2023-01-21T06:20:46.972Z,0.72
2023-01-21T06:23:13.461Z,0.71
2023-01-21T06:25:40.798Z,0.73
2023-01-21T06:28:07.254Z,0.75
2023-01-21T06:30:33.707Z,0.77
2023-01-21T06:33:00.174Z,0.74
2023-01-21T06:35:26.675Z,0.75
2023-01-21T06:37:53.125Z,0.77
2023-01-21T06:40:19.716Z,0.78
2023-01-21T06:42:46.962Z,0.79
2023-01-21T06:45:13.574Z,0.85
2023-01-21T06:47:41.473Z,0.82
2023-01-21T06:50:09.203Z,0.72
2023-01-21T06:52:35.622Z,0.63
2023-01-21T06:55:02.095Z,0.64
2023-01-21T06:57:28.535Z,0.63
2023-01-21T06:59:54.986Z,0.59
2023-01-21T07:02:21.497Z,0.58
2023-01-21T07:04:50.836Z,0.62
2023-01-21T07:07:17.551Z,0.57
2023-01-21T07:09:44.396Z,0.56
2023-01-21T07:12:10.913Z,0.57
2023-01-21T07:14:37.501Z,0.54
2023-01-21T07:17:04.084Z,0.46
2023-01-21T07:19:30.609Z,0.45
2023-01-21T07:21:57.159Z,0.39
2023-01-21T07:24:23.678Z,0.42
2023-01-21T07:26:50.214Z,0.44
2023-01-21T07:29:16.968Z,0.50
2023-01-21T07:31:43.502Z,0.48
2023-01-21T07:34:10.188Z,0.45
2023-01-21T07:36:36.668Z,0.48
2023-01-21T07:39:03.160Z,0.48
2023-01-21T07:41:29.721Z,0.49
2023-01-21T07:43:56.225Z,0.50
2023-01-21T07:46:23.449Z,0.54
2023-01-21T07:48:51.697Z,0.52
2023-01-21T07:51:21.877Z,0.54
2023-01-21T07:53:48.466Z,0.51
2023-01-21T07:56:16.249Z,0.46
2023-01-21T07:58:42.788Z,0.46
2023-01-21T08:01:10.017Z,0.50
2023-01-21T08:03:38.873Z,0.54
2023-01-21T08:06:05.933Z,0.58
2023-01-21T08:08:33.192Z,0.63
2023-01-21T08:11:00.068Z,0.73
2023-01-21T08:13:27.387Z,0.76
2023-01-21T08:15:56.016Z,0.78
2023-01-21T08:18:23.405Z,0.82
2023-01-21T08:21:00.116Z,0.91
2023-01-21T08:23:27.329Z,1.05
2023-01-21T08:25:54.999Z,1.17
2023-01-21T08:28:22.655Z,1.23
2023-01-21T08:30:49.585Z,1.30
2023-01-21T08:33:16.272Z,1.40
2023-01-21T08:35:43.204Z,1.55
2023-01-21T08:38:10.113Z,1.73
2023-01-21T08:40:36.619Z,1.70
2023-01-21T08:43:04.839Z,1.71
2023-01-21T08:45:32.067Z,1.77
2023-01-21T08:47:58.674Z,1.86
2023-01-21T08:50:26.563Z,1.97
2023-01-21T08:52:54.070Z,2.13
2023-01-21T08:55:22.051Z,2.22
2023-01-21T08:57:52.057Z,2.38
2023-01-21T09:00:19.224Z,2.53
2023-01-21T09:02:46.214Z,2.64
2023-01-21T09:05:12.707Z,2.68
2023-01-21T09:07:39.241Z,2.70
2023-01-21T09:10:06.063Z,2.71
2023-01-21T09:12:32.776Z,2.79
2023-01-21T09:14:59.315Z,2.87
2023-01-21T09:17:26.270Z,2.93
2023-01-21T09:19:55.282Z,2.97
2023-01-21T09:22:21.967Z,2.92
2023-01-21T09:24:48.535Z,2.93
2023-01-21T09:27:15.063Z,3.03
2023-01-21T09:29:41.607Z,3.10
2023-01-21T09:32:08.104Z,3.20
2023-01-21T09:34:35.832Z,3.28
2023-01-21T09:37:03.065Z,3.32
2023-01-21T09:39:29.671Z,3.34
2023-01-21T09:41:56.668Z,3.33
2023-01-21T09:44:44.067Z,3.38
2023-01-21T09:47:24.944Z,3.42
2023-01-21T09:49:51.887Z,3.43
2023-01-21T09:52:37.456Z,3.49
2023-01-21T09:55:07.355Z,3.59
2023-01-21T09:57:34.062Z,3.64
2023-01-21T10:00:07.039Z,3.78
2023-01-21T10:02:48.800Z,3.89
2023-01-21T10:05:24.689Z,4.04
2023-01-21T10:07:51.527Z,4.12
2023-01-21T10:10:22.605Z,4.19
2023-01-21T10:13:01.439Z,4.26
2023-01-21T10:15:57.686Z,4.12
2023-01-21T10:18:30.839Z,4.01
2023-01-21T10:21:05.029Z,4.01
2023-01-21T10:23:34.665Z,3.83
2023-01-21T10:26:05.203Z,3.71
2023-01-21T10:28:32.791Z,3.82
2023-01-21T10:31:15.835Z,3.98
2023-01-21T10:33:45.408Z,4.15
2023-01-21T10:36:35.064Z,4.34
2023-01-21T10:39:08.073Z,4.47
2023-01-21T10:41:55.179Z,4.67
2023-01-21T10:44:25.741Z,4.81
2023-01-21T10:47:04.418Z,4.93
2023-01-21T10:49:49.775Z,4.89
2023-01-21T10:52:22.849Z,4.66
2023-01-21T10:54:59.108Z,4.46
2023-01-21T10:57:46.236Z,4.35
2023-01-21T11:00:18.988Z,4.30
2023-01-21T11:02:53.420Z,4.37
2023-01-21T11:05:21.181Z,4.51
2023-01-21T11:07:48.445Z,4.66
2023-01-21T11:10:25.620Z,4.80
2023-01-21T11:12:54.341Z,4.78
2023-01-21T11:15:22.240Z,4.72
2023-01-21T11:17:50.583Z,4.66
2023-01-21T11:20:23.373Z,4.87
2023-01-21T11:22:50.538Z,5.09
2023-01-21T11:25:36.061Z,5.18
2023-01-21T11:28:03.674Z,5.24
2023-01-21T11:30:49.706Z,5.21
2023-01-21T11:33:17.071Z,5.03
2023-01-21T11:35:45.424Z,5.11
2023-01-21T11:38:22.978Z,5.23
2023-01-21T11:40:59.324Z,5.33
2023-01-21T11:43:49.342Z,5.59
2023-01-21T11:46:28.912Z,5.79
2023-01-21T11:48:56.881Z,5.76
2023-01-21T11:51:23.599Z,5.90
2023-01-21T11:54:06.578Z,5.99
2023-01-21T11:56:33.102Z,5.80
2023-01-21T11:58:59.642Z,5.42
2023-01-21T12:01:27.559Z,5.23
2023-01-21T12:03:56.448Z,5.07
2023-01-21T12:06:30.498Z,4.81
2023-01-21T12:08:59.974Z,4.74
2023-01-21T12:11:28.245Z,4.58
2023-01-21T12:14:13.614Z,4.45
2023-01-21T12:16:40.100Z,4.17
2023-01-21T12:19:16.682Z,4.16
2023-01-21T12:21:49.878Z,4.23
2023-01-21T12:24:35.168Z,4.32
2023-01-21T12:27:04.678Z,4.34
2023-01-21T12:29:43.372Z,4.26
2023-01-21T12:32:13.867Z,4.11
2023-01-21T12:34:43.824Z,4.10
2023-01-21T12:37:18.386Z,4.23
2023-01-21T12:39:48.912Z,4.20
2023-01-21T12:42:18.550Z,4.21
2023-01-21T12:44:48.847Z,4.19
2023-01-21T12:47:27.485Z,4.27
2023-01-21T12:50:01.584Z,4.20
2023-01-21T12:52:46.872Z,4.15
2023-01-21T12:55:30.300Z,4.13
2023-01-21T12:58:00.003Z,4.19
2023-01-21T13:00:34.077Z,4.19
2023-01-21T13:03:09.027Z,4.21
2023-01-21T13:05:38.816Z,4.30
2023-01-21T13:08:11.625Z,4.25
2023-01-21T13:10:40.950Z,4.30
2023-01-21T13:13:15.072Z,4.31
2023-01-21T13:15:45.493Z,4.16
2023-01-21T13:18:15.856Z,4.16
2023-01-21T13:20:52.743Z,4.19
2023-01-21T13:23:33.206Z,4.15
2023-01-21T13:26:02.804Z,4.20
2023-01-21T13:28:39.903Z,4.20
2023-01-21T13:31:22.607Z,4.14
2023-01-21T13:34:20.388Z,4.02
2023-01-21T13:36:49.664Z,3.91
2023-01-21T13:39:28.153Z,3.79
2023-01-21T13:42:03.923Z,3.71
2023-01-21T13:44:49.239Z,3.75
2023-01-21T13:47:32.795Z,3.83
2023-01-21T13:50:02.507Z,3.78
2023-01-21T13:52:55.737Z,3.79
2023-01-21T13:55:38.236Z,3.83
2023-01-21T13:58:25.642Z,3.67
2023-01-21T14:01:01.468Z,3.57
2023-01-21T14:03:33.536Z,3.45
2023-01-21T14:06:05.277Z,3.45
2023-01-21T14:08:40.258Z,3.39
2023-01-21T14:11:09.992Z,3.33
2023-01-21T14:13:46.792Z,3.36
2023-01-21T14:16:16.683Z,3.45
2023-01-21T14:18:55.078Z,3.56
2023-01-21T14:21:39.939Z,3.67
2023-01-21T14:24:22.721Z,3.75
2023-01-21T14:26:57.346Z,3.83
2023-01-21T14:29:34.721Z,3.85
2023-01-21T14:32:05.973Z,3.83
2023-01-21T14:34:59.278Z,3.80
2023-01-21T14:37:52.229Z,3.80
2023-01-21T14:40:23.006Z,3.74
2023-01-21T14:42:51.015Z,3.67
2023-01-21T14:45:22.552Z,3.66
2023-01-21T14:47:50.863Z,3.68
2023-01-21T14:50:37.270Z,3.72
2023-01-21T14:53:10.675Z,3.72
2023-01-21T14:55:37.239Z,3.68
2023-01-21T14:58:04.104Z,3.70
2023-01-21T15:00:32.424Z,3.61
2023-01-21T15:03:02.104Z,3.56
2023-01-21T15:05:32.407Z,3.57
2023-01-21T15:08:01.947Z,3.60
2023-01-21T15:10:38.908Z,3.64
2023-01-21T15:13:22.335Z,3.72
2023-01-21T15:16:07.736Z,3.61
2023-01-21T15:18:36.794Z,3.57
2023-01-21T15:21:23.465Z,3.60
2023-01-21T15:23:50.307Z,3.63
2023-01-21T15:26:18.886Z,3.62
2023-01-21T15:28:49.616Z,3.61
2023-01-21T15:31:23.492Z,3.60
2023-01-21T15:33:55.324Z,3.54
2023-01-21T15:36:31.107Z,3.57
2023-01-21T15:39:02.619Z,3.52
2023-01-21T15:41:29.232Z,3.50
2023-01-21T15:44:04.342Z,3.49
2023-01-21T15:46:56.308Z,3.45
2023-01-21T15:49:33.146Z,3.45
2023-01-21T15:52:18.824Z,3.47
2023-01-21T15:54:50.214Z,3.45
2023-01-21T15:57:22.865Z,3.31
2023-01-21T16:00:09.670Z,3.23
2023-01-21T16:02:58.014Z,3.15
2023-01-21T16:05:31.191Z,3.11
2023-01-21T16:08:07.036Z,3.01
2023-01-21T16:10:42.096Z,2.98
2023-01-21T16:13:14.160Z,2.92
2023-01-21T16:15:53.131Z,2.88
2023-01-21T16:18:30.950Z,2.86
2023-01-21T16:21:00.569Z,2.82
2023-01-21T16:23:29.160Z,2.87
2023-01-21T16:25:55.764Z,2.88
2023-01-21T16:28:22.544Z,2.91
2023-01-21T16:30:57.276Z,2.83
2023-01-21T16:33:24.008Z,2.73
2023-01-21T16:35:56.208Z,2.62
2023-01-21T16:38:26.964Z,2.60
2023-01-21T16:41:16.899Z,2.52
2023-01-21T16:43:45.786Z,2.54
2023-01-21T16:46:14.747Z,2.56
2023-01-21T16:48:41.781Z,2.57
2023-01-21T16:51:23.735Z,2.61
2023-01-21T16:53:53.036Z,2.62
2023-01-21T16:56:28.303Z,2.68
2023-01-21T16:59:01.360Z,2.70
2023-01-21T17:01:31.933Z,2.72
2023-01-21T17:04:03.546Z,2.81
2023-01-21T17:06:35.585Z,2.85
2023-01-21T17:09:08.753Z,2.84
2023-01-21T17:11:38.789Z,2.87
2023-01-21T17:14:10.467Z,2.93
2023-01-21T17:16:39.811Z,2.98
2023-01-21T17:19:26.450Z,2.84
2023-01-21T17:21:55.870Z,2.91
2023-01-21T17:24:25.343Z,2.91
2023-01-21T17:27:04.627Z,2.93
2023-01-21T17:29:33.994Z,2.99
2023-01-21T17:32:02.344Z,3.04
2023-01-21T17:34:36.560Z,3.02
2023-01-21T17:37:33.425Z,2.91
2023-01-21T17:40:16.041Z,2.85
2023-01-21T17:42:43.455Z,2.80
2023-01-21T17:48:10.972Z,2.63
2023-01-21T17:50:46.561Z,2.71
2023-01-21T17:53:33.337Z,2.71
2023-01-21T17:56:19.205Z,2.74
2023-01-21T17:59:27.343Z,2.82
2023-01-21T18:02:03.875Z,2.99
2023-01-21T18:07:20.718Z,2.98
2023-01-21T18:10:34.157Z,2.90
2023-01-21T18:13:09.665Z,2.93
2023-01-21T18:15:54.462Z,2.95
2023-01-21T18:19:31.191Z,2.96
2023-01-21T18:22:26.683Z,2.97
2023-01-21T18:24:56.090Z,2.96
2023-01-21T18:27:35.857Z,2.97
2023-01-21T18:30:14.843Z,2.91
2023-01-21T18:32:56.271Z,2.91
2023-01-21T18:35:32.806Z,2.90
2023-01-21T18:38:03.006Z,2.82
2023-01-21T18:40:32.565Z,2.74
2023-01-21T18:43:01.657Z,2.76
2023-01-21T18:45:31.849Z,2.80
2023-01-21T18:48:03.674Z,2.77
2023-01-21T18:50:37.124Z,2.75
2023-01-21T18:53:09.684Z,2.71
2023-01-21T18:55:36.813Z,2.69
2023-01-21T18:58:18.262Z,2.69
2023-01-21T19:00:45.472Z,2.61
2023-01-21T19:03:21.829Z,2.59
2023-01-21T19:05:51.430Z,2.58
2023-01-21T19:08:27.113Z,2.57
2023-01-21T19:10:56.082Z,2.64
2023-01-21T19:13:25.659Z,2.74
2023-01-21T19:16:01.064Z,2.70
2023-01-21T19:18:28.279Z,2.69
2023-01-21T19:20:55.760Z,2.59
2023-01-21T19:23:28.016Z,2.51
2023-01-21T19:25:58.648Z,2.59
2023-01-21T19:28:26.151Z,2.60
2023-01-21T19:30:55.809Z,2.54
2023-01-21T19:33:25.142Z,2.58
2023-01-21T19:36:12.833Z,2.48
2023-01-21T19:38:42.653Z,2.45
2023-01-21T19:41:20.340Z,2.53
2023-01-21T19:43:47.399Z,2.48
2023-01-21T19:46:23.264Z,2.48
2023-01-21T19:48:54.139Z,2.45
2023-01-21T19:51:25.740Z,2.43
2023-01-21T19:53:58.226Z,2.51
2023-01-21T19:56:27.879Z,2.64
2023-01-21T19:58:57.634Z,2.75
2023-01-21T20:01:25.911Z,2.78
2023-01-21T20:04:00.650Z,2.72
2023-01-21T20:06:32.119Z,2.76
2023-01-21T20:09:00.738Z,2.76
2023-01-21T20:11:30.796Z,2.77
2023-01-21T20:13:57.931Z,2.81
2023-01-21T20:16:27.516Z,2.81
2023-01-21T20:18:59.704Z,2.80
2023-01-21T20:21:26.562Z,2.90
2023-01-21T20:23:53.325Z,2.92
2023-01-21T20:26:26.695Z,2.91
2023-01-21T20:28:54.694Z,2.92
2023-01-21T20:31:21.765Z,2.95
2023-01-21T20:33:49.115Z,3.01
2023-01-21T20:36:23.365Z,2.97
2023-01-21T20:39:00.038Z,3.00
2023-01-21T20:41:31.435Z,2.99
2023-01-21T20:44:01.408Z,2.98
2023-01-21T20:46:29.861Z,2.91
2023-01-21T20:49:00.343Z,2.95
2023-01-21T20:51:27.625Z,2.88
2023-01-21T20:53:57.452Z,2.88
2023-01-21T20:56:24.059Z,2.91
2023-01-21T20:58:54.119Z,2.93
2023-01-21T21:01:22.008Z,2.99
2023-01-21T21:03:49.104Z,2.96
2023-01-21T21:06:19.698Z,2.96
2023-01-21T21:08:50.032Z,2.98
2023-01-21T21:11:17.121Z,3.07
2023-01-21T21:13:46.709Z,3.11
2023-01-21T21:16:28.674Z,3.14
2023-01-21T21:18:56.525Z,3.15
2023-01-21T21:21:24.164Z,3.16
2023-01-21T21:23:52.218Z,3.07
2023-01-21T21:26:23.876Z,2.80
2023-01-21T21:28:51.313Z,2.56
2023-01-21T21:31:18.605Z,2.42
2023-01-21T21:33:45.327Z,2.22
2023-01-21T21:36:19.541Z,2.10
2023-01-21T21:38:47.045Z,1.97
2023-01-21T21:41:39.511Z,1.94
2023-01-21T21:44:06.994Z,1.82
2023-01-21T21:46:52.529Z,1.79
2023-01-21T21:49:21.161Z,1.70
2023-01-21T21:51:48.352Z,1.70
2023-01-21T21:54:17.866Z,1.75
2023-01-21T21:56:49.365Z,1.68
2023-01-21T21:59:18.379Z,1.63
2023-01-21T22:01:45.195Z,1.65
2023-01-21T22:04:12.729Z,1.60
2023-01-21T22:06:39.941Z,1.52
2023-01-21T22:09:10.070Z,1.52
2023-01-21T22:11:40.829Z,1.51
2023-01-21T22:14:45.664Z,1.52
2023-01-21T22:17:12.848Z,1.42
2023-01-21T22:19:49.460Z,1.41
2023-01-21T22:22:19.908Z,1.35
2023-01-21T22:24:54.515Z,1.31
2023-01-21T22:27:21.709Z,1.30
2023-01-21T22:29:48.365Z,1.30
2023-01-21T22:32:16.203Z,1.25
2023-01-21T22:34:47.939Z,1.29
2023-01-21T22:37:37.310Z,1.35
2023-01-21T22:40:21.568Z,1.36
2023-01-21T22:42:59.218Z,1.39
2023-01-21T22:45:30.208Z,1.45
2023-01-21T22:48:08.229Z,1.45
2023-01-21T22:50:45.892Z,1.41
2023-01-21T22:56:02.966Z,1.52
2023-01-21T22:59:09.769Z,1.51
2023-01-21T23:01:45.826Z,1.54
2023-01-21T23:04:17.881Z,1.46
2023-01-21T23:06:48.998Z,1.46
2023-01-21T23:10:20.172Z,1.38
2023-01-21T23:13:05.143Z,1.50
2023-01-21T23:16:19.286Z,1.58
2023-01-21T23:22:15.435Z,1.73
2023-01-21T23:25:07.047Z,1.72
2023-01-21T23:28:24.591Z,1.61
2023-01-21T23:30:55.491Z,1.65
2023-01-21T23:33:27.446Z,1.64
2023-01-21T23:35:57.534Z,1.64
2023-01-21T23:38:28.196Z,1.67
2023-01-21T23:40:55.955Z,1.75
2023-01-21T23:43:26.676Z,1.86
2023-01-21T23:45:56.595Z,1.92
2023-01-21T23:48:23.287Z,1.92
2023-01-21T23:53:51.138Z,1.87
2023-01-21T23:56:23.716Z,1.86
2023-01-21T23:58:56.921Z,1.80
